createdAt,value
2019-03-23T00:00:01.326Z,21.33
2019-03-23T00:02:35.909Z,22.07
2019-03-23T00:05:09.210Z,21.40
2019-03-23T00:07:42.449Z,20.77
2019-03-23T00:10:15.279Z,21.03
2019-03-23T00:12:47.856Z,20.73
2019-03-23T00:15:20.465Z,20.07
2019-03-23T00:17:52.991Z,21.53
2019-03-23T00:20:25.835Z,21.37
2019-03-23T00:22:58.336Z,20.77
2019-03-23T00:25:31.062Z,22.07
2019-03-23T00:28:03.769Z,19.53
2019-03-23T00:30:36.431Z,19.73
2019-03-23T00:33:09.002Z,20.83
2019-03-23T00:35:41.672Z,19.60
2019-03-23T00:38:14.239Z,18.00
2019-03-23T00:40:48.534Z,18.53
2019-03-23T00:43:21.471Z,19.53
2019-03-23T00:45:55.150Z,19.47
2019-03-23T00:48:27.897Z,18.30
2019-03-23T00:51:00.401Z,17.77
2019-03-23T00:53:32.950Z,18.13
2019-03-23T00:56:05.979Z,17.93
2019-03-23T00:58:38.521Z,20.13
2019-03-23T01:01:11.318Z,19.10
2019-03-23T01:03:45.121Z,18.87
2019-03-23T01:06:17.881Z,18.97
2019-03-23T01:08:50.797Z,19.80
2019-03-23T01:11:23.608Z,19.53
2019-03-23T01:13:56.262Z,20.83
2019-03-23T01:16:29.068Z,20.30
2019-03-23T01:19:01.592Z,21.00
2019-03-23T01:21:34.207Z,20.93
2019-03-23T01:24:06.743Z,18.97
2019-03-23T01:26:39.262Z,20.17
2019-03-23T01:29:11.870Z,19.60
2019-03-23T01:31:44.577Z,20.07
2019-03-23T01:34:17.409Z,19.97
2019-03-23T01:36:49.893Z,19.17
2019-03-23T01:39:22.565Z,18.60
2019-03-23T01:41:55.004Z,19.27
2019-03-23T01:44:27.746Z,19.83
2019-03-23T01:47:00.065Z,19.50
2019-03-23T01:49:32.571Z,19.53
2019-03-23T01:52:05.226Z,19.87
2019-03-23T01:54:37.662Z,20.33
2019-03-23T01:57:10.226Z,21.57
2019-03-23T01:59:43.301Z,20.50
2019-03-23T02:02:16.662Z,20.80
2019-03-23T02:04:49.397Z,20.83
2019-03-23T02:07:21.977Z,22.00
2019-03-23T02:09:54.600Z,21.53
2019-03-23T02:12:27.242Z,20.90
2019-03-23T02:14:59.939Z,22.30
2019-03-23T02:17:32.572Z,24.40
2019-03-23T02:20:05.611Z,23.50
2019-03-23T02:22:38.162Z,24.23
2019-03-23T02:25:11.124Z,26.07
2019-03-23T02:27:43.994Z,26.87
2019-03-23T02:30:16.942Z,27.03
2019-03-23T02:32:49.528Z,26.20
2019-03-23T02:35:21.950Z,26.50
2019-03-23T02:37:54.521Z,25.87
2019-03-23T02:40:27.067Z,26.23
2019-03-23T02:42:59.827Z,24.97
2019-03-23T02:45:32.372Z,26.17
2019-03-23T02:48:05.041Z,27.57
2019-03-23T02:50:37.689Z,28.33
2019-03-23T02:53:10.200Z,26.73
2019-03-23T02:55:43.013Z,27.90
2019-03-23T02:58:15.530Z,27.70
2019-03-23T03:00:48.508Z,29.00
2019-03-23T03:03:22.093Z,28.80
2019-03-23T03:05:54.801Z,30.60
2019-03-23T03:08:27.402Z,29.63
2019-03-23T03:11:00.051Z,30.63
2019-03-23T03:13:32.822Z,32.47
2019-03-23T03:16:05.496Z,31.20
2019-03-23T03:18:37.970Z,31.70
2019-03-23T03:21:10.914Z,30.93
2019-03-23T03:23:43.753Z,29.60
2019-03-23T03:26:16.200Z,31.10
2019-03-23T03:28:48.599Z,30.57
2019-03-23T03:31:21.233Z,31.97
2019-03-23T03:33:53.807Z,31.97
2019-03-23T03:36:29.956Z,30.47
2019-03-23T03:39:00.950Z,27.63
2019-03-23T03:41:35.630Z,28.63
2019-03-23T03:44:08.168Z,30.97
2019-03-23T03:46:40.751Z,30.17
2019-03-23T03:49:13.319Z,31.70
2019-03-23T03:51:46.939Z,31.23
2019-03-23T03:54:20.570Z,29.17
2019-03-23T03:56:53.177Z,29.70
2019-03-23T03:59:25.666Z,33.77
2019-03-23T04:01:58.249Z,36.10
2019-03-23T04:04:31.017Z,32.07
2019-03-23T04:07:03.718Z,39.90
2019-03-23T04:09:36.358Z,41.97
2019-03-23T04:12:09.005Z,38.87
2019-03-23T04:14:41.770Z,37.07
2019-03-23T04:17:14.358Z,36.07
2019-03-23T04:19:46.930Z,35.03
2019-03-23T04:22:19.502Z,32.30
2019-03-23T04:24:52.084Z,31.37
2019-03-23T04:27:24.510Z,31.93
2019-03-23T04:29:57.243Z,29.63
2019-03-23T04:32:29.964Z,31.97
2019-03-23T04:35:02.582Z,33.03
2019-03-23T04:37:35.155Z,31.93
2019-03-23T04:40:08.681Z,33.03
2019-03-23T04:42:41.314Z,34.00
2019-03-23T04:45:14.386Z,33.93
2019-03-23T04:47:46.926Z,34.43
2019-03-23T04:50:19.494Z,33.90
2019-03-23T04:52:52.067Z,36.37
2019-03-23T04:55:24.746Z,35.93
2019-03-23T04:57:57.350Z,36.93
2019-03-23T05:00:30.018Z,37.40
2019-03-23T05:03:02.866Z,39.03
2019-03-23T05:05:35.525Z,39.70
2019-03-23T05:08:08.038Z,40.00
2019-03-23T05:10:40.590Z,41.80
2019-03-23T05:13:13.205Z,40.73
2019-03-23T05:15:45.745Z,41.33
2019-03-23T05:18:18.425Z,41.90
2019-03-23T05:20:51.171Z,45.37
2019-03-23T05:23:23.906Z,46.57
2019-03-23T05:25:56.332Z,45.47
2019-03-23T05:28:28.848Z,44.13
2019-03-23T05:31:01.518Z,44.87
2019-03-23T05:33:34.303Z,48.40
2019-03-23T05:36:06.844Z,45.70
2019-03-23T05:38:44.373Z,44.53
2019-03-23T05:41:13.734Z,43.50
2019-03-23T05:43:46.159Z,44.67
2019-03-23T05:46:18.840Z,46.87
2019-03-23T05:48:51.590Z,44.80
2019-03-23T05:51:24.220Z,43.90
2019-03-23T05:53:57.114Z,44.30
2019-03-23T05:56:29.879Z,44.17
2019-03-23T05:59:03.142Z,41.90
2019-03-23T06:01:35.801Z,45.27
2019-03-23T06:04:08.262Z,43.07
2019-03-23T06:06:40.630Z,44.03
2019-03-23T06:09:13.260Z,43.53
2019-03-23T06:11:45.612Z,41.53
2019-03-23T06:14:18.154Z,41.50
2019-03-23T06:16:50.689Z,41.20
2019-03-23T06:19:28.572Z,41.10
2019-03-23T06:22:09.974Z,39.73
2019-03-23T06:24:51.116Z,40.10
2019-03-23T06:27:24.639Z,40.17
2019-03-23T06:29:57.209Z,39.70
2019-03-23T06:32:29.779Z,38.23
2019-03-23T06:35:03.499Z,37.30
2019-03-23T06:37:36.099Z,37.07
2019-03-23T06:40:09.338Z,35.23
2019-03-23T06:42:41.957Z,32.80
2019-03-23T06:45:14.726Z,32.30
2019-03-23T06:47:47.237Z,29.83
2019-03-23T06:50:19.953Z,28.53
2019-03-23T06:52:52.639Z,26.33
2019-03-23T06:55:25.110Z,27.00
2019-03-23T06:57:57.699Z,26.13
2019-03-23T07:00:30.449Z,27.30
2019-03-23T07:03:02.968Z,25.97
2019-03-23T07:05:35.620Z,26.23
2019-03-23T07:08:07.990Z,23.00
2019-03-23T07:10:40.578Z,23.50
2019-03-23T07:13:13.149Z,22.80
2019-03-23T07:15:45.729Z,23.23
2019-03-23T07:18:18.079Z,22.33
2019-03-23T07:20:50.697Z,20.87
2019-03-23T07:23:23.049Z,21.07
2019-03-23T07:25:55.780Z,20.43
2019-03-23T07:28:29.261Z,20.13
2019-03-23T07:31:01.670Z,20.97
2019-03-23T07:33:34.103Z,20.07
2019-03-23T07:36:06.891Z,19.40
2019-03-23T07:38:39.339Z,19.50
2019-03-23T07:41:11.979Z,18.73
2019-03-23T07:43:44.490Z,18.40
2019-03-23T07:46:16.921Z,18.90
2019-03-23T07:48:49.399Z,20.17
2019-03-23T07:51:22.069Z,18.57
2019-03-23T07:53:54.579Z,19.00
2019-03-23T07:56:27.269Z,18.27
2019-03-23T07:58:59.807Z,18.60
2019-03-23T08:01:32.470Z,15.33
2019-03-23T08:04:04.968Z,14.27
2019-03-23T08:06:37.679Z,14.03
2019-03-23T08:09:20.021Z,13.40
2019-03-23T08:11:44.368Z,13.27
2019-03-23T08:14:16.970Z,12.37
2019-03-23T08:16:49.480Z,10.50
2019-03-23T08:19:22.144Z,11.53
2019-03-23T08:21:54.870Z,10.63
2019-03-23T08:24:27.440Z,8.70
2019-03-23T08:26:59.928Z,7.87
2019-03-23T08:29:32.559Z,7.30
2019-03-23T08:32:05.292Z,8.13
2019-03-23T08:34:37.771Z,7.93
2019-03-23T08:37:11.519Z,7.97
2019-03-23T08:39:48.483Z,8.13
2019-03-23T08:42:17.954Z,9.00
2019-03-23T08:44:50.589Z,9.07
2019-03-23T08:47:23.669Z,8.20
2019-03-23T08:49:56.468Z,7.20
2019-03-23T08:52:29.178Z,7.03
2019-03-23T08:55:01.971Z,6.37
2019-03-23T08:57:34.472Z,6.07
2019-03-23T09:00:07.558Z,6.37
2019-03-23T09:02:40.127Z,6.17
2019-03-23T09:05:12.867Z,5.87
2019-03-23T09:07:45.410Z,6.67
2019-03-23T09:10:17.799Z,6.47
2019-03-23T09:12:50.232Z,5.47
2019-03-23T09:15:22.767Z,5.83
2019-03-23T09:17:55.257Z,6.13
2019-03-23T09:20:29.425Z,5.93
2019-03-23T09:23:01.839Z,5.90
2019-03-23T09:25:34.417Z,6.07
2019-03-23T09:28:06.889Z,5.50
2019-03-23T09:30:39.769Z,5.70
2019-03-23T09:33:12.719Z,5.73
2019-03-23T09:35:45.219Z,5.60
2019-03-23T09:38:17.870Z,5.70
2019-03-23T09:40:50.349Z,5.90
2019-03-23T09:43:23.370Z,5.73
2019-03-23T09:45:56.339Z,5.57
2019-03-23T09:48:28.949Z,6.20
2019-03-23T09:51:01.749Z,7.90
2019-03-23T09:53:34.399Z,6.50
2019-03-23T09:56:08.189Z,6.10
2019-03-23T09:58:40.689Z,6.10
2019-03-23T10:01:13.448Z,7.10
2019-03-23T10:03:46.219Z,7.00
2019-03-23T10:06:18.829Z,6.10
2019-03-23T10:08:51.314Z,6.67
2019-03-23T10:11:23.725Z,5.77
2019-03-23T10:13:56.382Z,5.10
2019-03-23T10:16:28.946Z,5.53
2019-03-23T10:19:01.367Z,5.43
2019-03-23T10:21:33.904Z,5.17
2019-03-23T10:24:06.421Z,4.83
2019-03-23T10:26:39.113Z,4.43
2019-03-23T10:29:11.613Z,4.73
2019-03-23T10:31:44.153Z,4.57
2019-03-23T10:34:16.953Z,4.90
2019-03-23T10:36:50.435Z,4.73
2019-03-23T10:39:22.833Z,5.30
2019-03-23T10:41:55.523Z,4.27
2019-03-23T10:44:28.185Z,4.80
2019-03-23T10:47:00.549Z,4.50
2019-03-23T10:49:32.948Z,5.70
2019-03-23T10:52:06.661Z,5.37
2019-03-23T10:54:39.116Z,5.40
2019-03-23T10:57:12.669Z,5.00
2019-03-23T10:59:45.233Z,5.40
2019-03-23T11:02:18.118Z,5.27
2019-03-23T11:04:50.656Z,5.90
2019-03-23T11:07:23.134Z,6.60
2019-03-23T11:09:55.586Z,5.67
2019-03-23T11:12:28.213Z,5.67
2019-03-23T11:15:00.705Z,5.90
2019-03-23T11:17:33.589Z,5.57
2019-03-23T11:20:07.285Z,5.67
2019-03-23T11:22:39.733Z,5.60
2019-03-23T11:25:12.586Z,5.20
2019-03-23T11:27:45.302Z,5.57
2019-03-23T11:30:18.113Z,5.90
2019-03-23T11:32:50.805Z,5.80
2019-03-23T11:35:23.668Z,5.67
2019-03-23T11:37:56.441Z,6.10
2019-03-23T11:40:29.082Z,6.27
2019-03-23T11:43:01.842Z,5.50
2019-03-23T11:45:34.367Z,5.90
2019-03-23T11:48:07.156Z,5.83
2019-03-23T11:50:39.894Z,5.93
2019-03-23T11:53:12.711Z,6.10
2019-03-23T11:55:45.445Z,6.23
2019-03-23T11:58:18.226Z,5.83
2019-03-23T12:00:50.919Z,5.93
2019-03-23T12:03:23.542Z,6.13
2019-03-23T12:05:56.235Z,5.80
2019-03-23T12:08:28.914Z,6.50
2019-03-23T12:11:03.088Z,5.27
2019-03-23T12:13:36.118Z,5.57
2019-03-23T12:16:09.136Z,5.90
2019-03-23T12:18:41.938Z,5.83
2019-03-23T12:21:14.670Z,6.90
2019-03-23T12:23:47.254Z,6.83
2019-03-23T12:26:19.978Z,6.47
2019-03-23T12:28:52.506Z,6.90
2019-03-23T12:31:25.422Z,7.20
2019-03-23T12:33:57.945Z,7.23
2019-03-23T12:36:30.679Z,7.00
2019-03-23T12:39:03.326Z,7.37
2019-03-23T12:41:36.441Z,8.03
2019-03-23T12:44:08.986Z,7.83
2019-03-23T12:46:48.318Z,7.93
2019-03-23T12:49:15.700Z,7.30
2019-03-23T12:51:48.307Z,7.57
2019-03-23T12:54:20.855Z,7.53
2019-03-23T12:56:53.564Z,7.83
2019-03-23T12:59:26.163Z,7.37
2019-03-23T13:01:59.123Z,8.60
2019-03-23T13:04:31.779Z,7.93
2019-03-23T13:07:05.286Z,7.97
2019-03-23T13:09:37.918Z,7.63
2019-03-23T13:12:10.489Z,8.13
2019-03-23T13:14:43.120Z,7.70
2019-03-23T13:17:15.910Z,8.03
2019-03-23T13:19:48.630Z,7.13
2019-03-23T13:22:21.519Z,7.77
2019-03-23T13:24:54.073Z,8.67
2019-03-23T13:27:26.656Z,8.60
2019-03-23T13:29:59.265Z,8.60
2019-03-23T13:32:32.001Z,8.33
2019-03-23T13:35:04.562Z,8.60
2019-03-23T13:37:36.952Z,8.43
2019-03-23T13:40:09.802Z,8.23
2019-03-23T13:42:42.429Z,8.03
2019-03-23T13:45:15.720Z,8.50
2019-03-23T13:47:48.171Z,8.07
2019-03-23T13:50:27.448Z,7.43
2019-03-23T13:53:00.022Z,7.63
2019-03-23T13:55:34.529Z,7.63
2019-03-23T13:58:16.691Z,7.70
2019-03-23T14:00:49.292Z,8.23
2019-03-23T14:03:21.823Z,7.57
2019-03-23T14:05:54.303Z,7.47
2019-03-23T14:08:26.862Z,7.73
2019-03-23T14:10:59.502Z,7.80
2019-03-23T14:13:32.161Z,8.03
2019-03-23T14:16:04.903Z,8.53
2019-03-23T14:18:37.600Z,7.80
2019-03-23T14:21:10.140Z,8.03
2019-03-23T14:23:42.683Z,8.53
2019-03-23T14:26:15.301Z,9.40
2019-03-23T14:28:47.809Z,8.43
2019-03-23T14:31:20.461Z,7.83
2019-03-23T14:33:53.151Z,8.50
2019-03-23T14:36:25.901Z,10.73
2019-03-23T14:38:58.582Z,10.03
2019-03-23T14:41:31.145Z,9.10
2019-03-23T14:44:04.137Z,8.50
2019-03-23T14:46:36.933Z,8.43
2019-03-23T14:49:09.654Z,7.60
2019-03-23T14:51:42.615Z,7.90
2019-03-23T14:54:15.099Z,8.07
2019-03-23T14:56:47.667Z,7.97
2019-03-23T14:59:21.277Z,7.93
2019-03-23T15:01:53.796Z,7.93
2019-03-23T15:04:26.480Z,8.10
2019-03-23T15:06:59.226Z,8.20
2019-03-23T15:09:31.805Z,7.60
2019-03-23T15:12:04.459Z,7.50
2019-03-23T15:14:37.156Z,7.47
2019-03-23T15:17:09.731Z,7.37
2019-03-23T15:19:42.406Z,7.70
2019-03-23T15:22:15.421Z,8.50
2019-03-23T15:24:48.452Z,7.23
2019-03-23T15:27:20.953Z,7.77
2019-03-23T15:29:53.446Z,7.47
2019-03-23T15:32:26.167Z,8.13
2019-03-23T15:34:58.598Z,7.97
2019-03-23T15:37:31.295Z,7.13
2019-03-23T15:40:03.966Z,7.23
2019-03-23T15:42:36.708Z,7.40
2019-03-23T15:45:10.385Z,7.60
2019-03-23T15:47:42.892Z,6.83
2019-03-23T15:50:15.855Z,6.87
2019-03-23T15:52:48.528Z,7.13
2019-03-23T15:55:21.325Z,6.40
2019-03-23T15:57:53.913Z,6.10
2019-03-23T16:00:26.861Z,5.87
2019-03-23T16:02:59.691Z,5.87
2019-03-23T16:05:32.177Z,6.30
2019-03-23T16:08:04.753Z,6.00
2019-03-23T16:10:37.368Z,5.87
2019-03-23T16:13:09.914Z,6.43
2019-03-23T16:15:42.667Z,6.30
2019-03-23T16:18:15.175Z,6.70
2019-03-23T16:20:47.615Z,6.07
2019-03-23T16:23:20.410Z,6.20
2019-03-23T16:25:52.888Z,6.50
2019-03-23T16:28:25.886Z,6.47
2019-03-23T16:30:58.557Z,6.60
2019-03-23T16:33:31.556Z,6.07
2019-03-23T16:36:04.230Z,6.23
2019-03-23T16:38:36.880Z,6.27
2019-03-23T16:41:09.407Z,6.60
2019-03-23T16:43:41.944Z,7.00
2019-03-23T16:46:14.407Z,7.07
2019-03-23T16:48:47.144Z,7.50
2019-03-23T16:51:21.022Z,7.67
2019-03-23T16:53:53.565Z,8.23
2019-03-23T16:56:26.062Z,8.23
2019-03-23T16:58:58.710Z,7.97
2019-03-23T17:01:31.638Z,8.23
2019-03-23T17:04:04.324Z,7.63
2019-03-23T17:06:45.961Z,8.40
2019-03-23T17:09:11.236Z,7.93
2019-03-23T17:11:43.785Z,9.17
2019-03-23T17:14:16.357Z,8.07
2019-03-23T17:16:48.954Z,9.50
2019-03-23T17:19:21.607Z,9.40
2019-03-23T17:21:54.165Z,10.20
2019-03-23T17:24:27.004Z,10.50
2019-03-23T17:26:59.910Z,9.37
2019-03-23T17:29:32.419Z,9.57
2019-03-23T17:32:05.117Z,10.07
2019-03-23T17:34:38.959Z,9.80
2019-03-23T17:37:11.505Z,10.70
2019-03-23T17:39:44.314Z,10.27
2019-03-23T17:42:16.975Z,10.83
2019-03-23T17:44:49.643Z,10.57
2019-03-23T17:47:22.203Z,10.17
2019-03-23T17:49:57.170Z,9.63
2019-03-23T17:52:29.294Z,10.07
2019-03-23T17:55:02.055Z,11.17
2019-03-23T17:57:34.786Z,10.97
2019-03-23T18:00:08.756Z,11.80
2019-03-23T18:02:42.745Z,12.10
2019-03-23T18:05:15.385Z,11.97
2019-03-23T18:07:47.901Z,12.33
2019-03-23T18:10:20.714Z,12.63
2019-03-23T18:12:53.538Z,11.83
2019-03-23T18:15:27.170Z,12.43
2019-03-23T18:17:59.726Z,12.33
2019-03-23T18:20:32.258Z,12.60
2019-03-23T18:23:05.062Z,13.13
2019-03-23T18:25:37.764Z,13.50
2019-03-23T18:28:10.601Z,14.40
2019-03-23T18:30:44.798Z,13.67
2019-03-23T18:33:17.538Z,14.37
2019-03-23T18:35:50.335Z,14.63
2019-03-23T18:38:22.907Z,17.27
2019-03-23T18:40:55.609Z,15.07
2019-03-23T18:43:28.490Z,16.40
2019-03-23T18:46:01.294Z,15.80
2019-03-23T18:48:34.002Z,15.60
2019-03-23T18:51:06.783Z,16.33
2019-03-23T18:53:39.415Z,16.03
2019-03-23T18:56:12.038Z,16.50
2019-03-23T18:58:44.842Z,17.00
2019-03-23T19:01:17.458Z,17.07
2019-03-23T19:03:50.203Z,19.73
2019-03-23T19:06:23.040Z,18.63
2019-03-23T19:08:55.773Z,18.10
2019-03-23T19:11:28.598Z,19.13
2019-03-23T19:14:01.022Z,19.33
2019-03-23T19:16:33.682Z,19.03
2019-03-23T19:19:06.558Z,19.40
2019-03-23T19:21:39.315Z,19.50
2019-03-23T19:24:12.010Z,20.73
2019-03-23T19:26:44.603Z,21.07
2019-03-23T19:29:17.012Z,21.23
2019-03-23T19:31:49.726Z,21.97
2019-03-23T19:34:22.329Z,22.47
2019-03-23T19:36:54.918Z,22.97
2019-03-23T19:39:27.423Z,22.17
2019-03-23T19:42:00.119Z,23.73
2019-03-23T19:44:59.282Z,22.53
2019-03-23T19:47:31.642Z,22.07
2019-03-23T19:50:04.412Z,21.70
2019-03-23T19:52:36.566Z,24.13
2019-03-23T19:55:09.492Z,22.83
2019-03-23T19:57:41.662Z,24.70
2019-03-23T20:00:14.753Z,26.20
2019-03-23T20:02:47.316Z,24.10
2019-03-23T20:05:19.427Z,24.77
2019-03-23T20:07:51.693Z,25.40
2019-03-23T20:10:23.953Z,27.07
2019-03-23T20:12:56.282Z,25.53
2019-03-23T20:15:28.439Z,25.87
2019-03-23T20:18:00.636Z,26.27
2019-03-23T20:20:32.949Z,27.23
2019-03-23T20:23:05.105Z,26.37
2019-03-23T20:25:39.542Z,26.87
2019-03-23T20:28:11.115Z,28.47
2019-03-23T20:30:43.347Z,27.33
2019-03-23T20:33:19.622Z,27.17
2019-03-23T20:35:49.088Z,29.07
2019-03-23T20:38:21.487Z,29.43
2019-03-23T20:40:53.773Z,28.10
2019-03-23T20:43:26.077Z,29.30
2019-03-23T20:45:58.787Z,28.57
2019-03-23T20:48:31.027Z,29.77
2019-03-23T20:51:03.347Z,28.63
2019-03-23T20:53:35.928Z,27.57
2019-03-23T20:56:08.116Z,28.77
2019-03-23T20:58:40.567Z,28.37
2019-03-23T21:01:12.895Z,29.10
2019-03-23T21:03:45.156Z,30.77
2019-03-23T21:06:17.498Z,29.13
2019-03-23T21:08:49.676Z,29.90
2019-03-23T21:11:21.815Z,30.10
2019-03-23T21:13:54.021Z,28.57
2019-03-23T21:16:27.296Z,29.37
2019-03-23T21:18:59.496Z,28.73
2019-03-23T21:21:31.707Z,29.83
2019-03-23T21:24:04.015Z,28.90
2019-03-23T21:26:36.175Z,29.80
2019-03-23T21:29:08.447Z,31.13
2019-03-23T21:31:40.675Z,30.40
2019-03-23T21:34:12.787Z,31.50
2019-03-23T21:36:45.047Z,31.37
2019-03-23T21:39:17.427Z,33.73
2019-03-23T21:41:49.836Z,32.57
2019-03-23T21:44:30.682Z,31.80
2019-03-23T21:46:56.144Z,32.33
2019-03-23T21:49:28.347Z,33.73
2019-03-23T21:52:01.665Z,35.63
2019-03-23T21:54:33.970Z,40.98
2019-03-23T21:57:06.331Z,35.93
2019-03-23T21:59:39.280Z,35.60
2019-03-23T22:02:11.566Z,37.83
2019-03-23T22:04:43.828Z,37.70
2019-03-23T22:07:16.316Z,36.73
2019-03-23T22:09:48.571Z,37.83
2019-03-23T22:12:21.109Z,37.50
2019-03-23T22:14:53.282Z,37.77
2019-03-23T22:17:25.573Z,37.50
2019-03-23T22:19:57.673Z,37.90
2019-03-23T22:22:29.811Z,44.97
2019-03-23T22:25:02.004Z,48.90
2019-03-23T22:27:34.151Z,51.47
2019-03-23T22:30:08.771Z,58.97
2019-03-23T22:32:41.276Z,56.30
2019-03-23T22:35:13.535Z,60.20
2019-03-23T22:37:45.852Z,61.97
2019-03-23T22:40:18.209Z,61.60
2019-03-23T22:42:50.522Z,61.40
2019-03-23T22:45:22.752Z,60.10
2019-03-23T22:47:55.030Z,57.07
2019-03-23T22:50:27.333Z,55.43
2019-03-23T22:52:59.819Z,53.63
2019-03-23T22:55:32.106Z,50.27
2019-03-23T22:58:04.340Z,49.13
2019-03-23T23:00:44.033Z,46.47
2019-03-23T23:03:16.303Z,45.10
2019-03-23T23:05:48.519Z,41.93
2019-03-23T23:08:21.306Z,40.77
2019-03-23T23:10:53.636Z,39.83
2019-03-23T23:13:26.050Z,37.27
2019-03-23T23:15:58.284Z,36.27
2019-03-23T23:18:30.581Z,34.97
2019-03-23T23:21:02.793Z,34.47
2019-03-23T23:23:35.354Z,33.20
2019-03-23T23:26:07.685Z,39.03
2019-03-23T23:28:39.873Z,43.13
2019-03-23T23:31:13.443Z,42.73
2019-03-23T23:33:45.603Z,42.73
2019-03-23T23:36:18.093Z,43.40
2019-03-23T23:38:52.457Z,36.03
2019-03-23T23:41:24.459Z,29.57
2019-03-23T23:43:56.619Z,27.63
2019-03-23T23:46:29.334Z,24.43
2019-03-23T23:49:01.497Z,24.57
2019-03-23T23:51:33.855Z,21.50
2019-03-23T23:54:06.275Z,23.63
2019-03-23T23:56:38.476Z,20.97
2019-03-23T23:59:10.793Z,24.13
